Time;durP1;ratioP1;P1;durP2;ratioP2;P2;SDS_P1;SDS_P2;PMS_P1;PMS_P2;Temp;Humidity;BMP_temperature;BMP_pressure;BME280_temperature;BME280_humidity;BME280_pressure;Samples;Min_cycle;Max_cycle;Signal;HPM_P1;HPM_P2
2022/02/28 00:01:14;;;;;;;16.50;10.85;;;;;;;2.57;67.01;95315.81;1498256;94;21067;-50
2022/02/28 00:03:41;;;;;;;17.82;11.80;;;;;;;2.55;67.47;95322.21;1523150;92;21101;-56
2022/02/28 00:06:08;;;;;;;16.40;10.95;;;;;;;2.61;67.43;95324.19;1523277;92;21107;-51
2022/02/28 00:08:36;;;;;;;15.40;10.85;;;;;;;2.66;67.75;95321.09;1521655;92;21069;-51
2022/02/28 00:11:03;;;;;;;16.60;11.45;;;;;;;2.76;67.66;95319.57;1531596;92;21584;-52
2022/02/28 00:13:30;;;;;;;18.32;11.80;;;;;;;2.81;67.43;95316.47;1501593;93;21652;-51
2022/02/28 00:15:58;;;;;;;22.77;12.75;;;;;;;2.82;67.35;95318.03;1540871;90;21049;-52
2022/02/28 00:18:26;;;;;;;20.45;12.98;;;;;;;2.81;67.04;95311.04;1537364;90;21010;-51
2022/02/28 00:20:54;;;;;;;20.62;12.10;;;;;;;2.81;67.25;95315.11;1518068;92;21057;-53
2022/02/28 00:23:21;;;;;;;18.07;10.93;;;;;;;2.85;66.97;95311.84;1522429;90;21185;-52
2022/02/28 00:25:50;;;;;;;15.85;11.55;;;;;;;2.82;66.91;95311.23;1520651;92;21106;-50
2022/02/28 00:28:17;;;;;;;15.38;10.45;;;;;;;2.78;66.91;95310.45;1516480;92;21070;-52
2022/02/28 00:30:44;;;;;;;18.02;11.68;;;;;;;2.82;67.11;95304.44;1521833;92;21108;-50
2022/02/28 00:33:11;;;;;;;15.98;10.60;;;;;;;2.85;66.90;95306.41;1529813;91;21505;-54
2022/02/28 00:35:39;;;;;;;12.50;9.63;;;;;;;2.84;66.90;95293.40;1535138;91;20993;-53
2022/02/28 00:38:08;;;;;;;16.87;10.23;;;;;;;2.80;66.74;95291.26;1540660;91;21144;-58
2022/02/28 00:40:38;;;;;;;13.45;9.83;;;;;;;2.73;66.93;95297.25;1521887;92;21076;-56
2022/02/28 00:43:05;;;;;;;11.88;8.23;;;;;;;2.73;67.10;95297.25;1525827;91;21100;-54
2022/02/28 00:45:32;;;;;;;12.58;8.58;;;;;;;2.78;67.09;95292.23;1550336;91;21167;-53
2022/02/28 00:48:00;;;;;;;12.00;8.85;;;;;;;2.78;66.97;95290.08;1522141;92;21507;-54
2022/02/28 00:50:27;;;;;;;10.82;9.30;;;;;;;2.75;66.95;95294.36;1538677;90;21051;-54
2022/02/28 00:52:54;;;;;;;11.95;8.55;;;;;;;2.77;67.01;95287.95;1545904;91;21033;-54
2022/02/28 00:55:21;;;;;;;10.20;7.67;;;;;;;2.79;66.83;95285.63;1552457;90;21021;-54
2022/02/28 00:57:48;;;;;;;8.55;6.55;;;;;;;2.73;66.83;95282.31;1545363;90;21527;-55
2022/02/28 01:00:17;;;;;;;7.53;6.80;;;;;;;2.68;66.96;95292.20;1525553;94;21081;-53
2022/02/28 01:02:44;;;;;;;8.35;6.80;;;;;;;2.66;67.00;95285.02;1518089;92;21025;-55
2022/02/28 01:05:13;;;;;;;8.40;7.40;;;;;;;2.63;67.04;95283.83;1546845;92;21085;-54
2022/02/28 01:07:41;;;;;;;12.03;9.45;;;;;;;2.57;66.99;95280.52;1545371;91;21270;-54
2022/02/28 01:10:09;;;;;;;9.78;8.50;;;;;;;2.49;67.12;95278.94;1535501;90;21151;-59
2022/02/28 01:12:38;;;;;;;10.78;8.83;;;;;;;2.45;67.42;95276.77;1532104;91;21090;-58
2022/02/28 01:15:08;;;;;;;10.88;8.40;;;;;;;2.38;67.57;95278.91;1529879;92;21132;-54
2022/02/28 01:17:37;;;;;;;12.65;8.88;;;;;;;2.41;67.89;95275.98;1531666;92;22301;-54
2022/02/28 01:20:07;;;;;;;11.30;8.48;;;;;;;2.45;68.15;95280.28;1542640;91;21089;-53
2022/02/28 01:22:36;;;;;;;10.00;8.05;;;;;;;2.54;68.07;95279.33;1552772;90;21548;-54
2022/02/28 01:25:04;;;;;;;10.40;8.68;;;;;;;2.62;68.05;95276.05;1550843;90;21104;-54
2022/02/28 01:27:31;;;;;;;8.35;7.30;;;;;;;2.57;67.98;95277.23;1550901;90;21005;-55
2022/02/28 01:29:58;;;;;;;7.95;6.40;;;;;;;2.45;68.34;95269.98;1526526;91;21214;-54
2022/02/28 01:32:25;;;;;;;6.53;5.92;;;;;;;2.33;68.89;95273.06;1539334;90;21594;-53
2022/02/28 01:34:52;;;;;;;7.20;6.40;;;;;;;2.17;69.54;95267.93;1552139;90;21045;-55
2022/02/28 01:37:19;;;;;;;6.20;5.62;;;;;;;2.11;70.08;95272.77;1534378;91;21017;-54
2022/02/28 01:39:46;;;;;;;7.15;6.17;;;;;;;2.12;70.63;95270.25;1539357;91;21058;-53
2022/02/28 01:42:13;;;;;;;6.28;5.47;;;;;;;2.22;70.62;95270.87;1542703;90;21077;-58
2022/02/28 01:44:41;;;;;;;6.60;6.00;;;;;;;2.27;70.57;95271.28;1507714;92;21104;-55
2022/02/28 01:47:11;;;;;;;8.45;7.58;;;;;;;2.35;70.53;95272.09;1540363;90;21181;-54
2022/02/28 01:49:39;;;;;;;8.60;7.72;;;;;;;2.37;70.01;95270.56;1526516;92;21105;-53
2022/02/28 01:52:07;;;;;;;6.62;5.80;;;;;;;2.24;70.18;95276.69;1535258;91;21541;-54
2022/02/28 01:54:34;;;;;;;7.00;5.90;;;;;;;2.21;70.45;95274.74;1551041;90;21220;-60
2022/02/28 01:57:01;;;;;;;6.67;5.15;;;;;;;2.23;70.02;95271.06;1546638;90;21486;-54
2022/02/28 01:59:28;;;;;;;6.00;5.50;;;;;;;2.29;69.76;95268.20;1537138;91;21172;-53
2022/02/28 02:01:55;;;;;;;5.75;5.25;;;;;;;2.33;68.99;95279.84;1524381;91;21277;-54
2022/02/28 02:04:22;;;;;;;6.10;5.42;;;;;;;2.29;68.60;95271.68;1530732;92;21521;-55
2022/02/28 02:06:49;;;;;;;5.87;5.37;;;;;;;2.28;68.30;95274.77;1548147;91;21082;-55
2022/02/28 02:09:16;;;;;;;6.00;5.00;;;;;;;2.29;67.99;95278.47;1519200;91;21384;-56
2022/02/28 02:11:43;;;;;;;5.58;5.17;;;;;;;2.28;67.66;95274.20;1535055;92;21173;-50
2022/02/28 02:14:11;;;;;;;6.78;6.08;;;;;;;2.25;67.53;95277.67;1538376;91;21014;-49
2022/02/28 02:16:39;;;;;;;6.55;5.92;;;;;;;2.23;67.36;95273.78;1535245;90;21093;-50
2022/02/28 02:19:06;;;;;;;6.60;6.00;;;;;;;2.24;66.88;95271.26;1531771;90;21124;-50
2022/02/28 02:21:33;;;;;;;7.00;5.80;;;;;;;2.20;66.49;95273.98;1537693;91;21067;-50
2022/02/28 02:24:00;;;;;;;6.05;5.53;;;;;;;2.17;66.14;95276.66;1548838;90;21189;-50
2022/02/28 02:26:27;;;;;;;6.65;6.05;;;;;;;2.11;65.98;95282.27;1529487;91;21057;-50
2022/02/28 02:28:54;;;;;;;6.83;6.20;;;;;;;2.00;65.81;95280.06;1546344;92;21009;-56
2022/02/28 02:31:21;;;;;;;6.67;6.08;;;;;;;1.86;65.88;95282.13;1529689;92;21082;-50
2022/02/28 02:33:50;;;;;;;7.05;6.35;;;;;;;1.80;66.12;95280.14;1524670;92;21560;-53
2022/02/28 02:36:20;;;;;;;8.28;6.67;;;;;;;1.75;66.13;95276.44;1551187;90;21224;-50
2022/02/28 02:38:47;;;;;;;7.25;6.65;;;;;;;1.70;66.26;95272.70;1545145;90;21046;-49
2022/02/28 02:41:14;;;;;;;7.60;6.45;;;;;;;1.66;66.28;95270.55;1552866;92;21166;-50
2022/02/28 02:43:41;;;;;;;7.05;6.37;;;;;;;1.58;66.10;95274.39;1538266;90;21506;-52
2022/02/28 02:46:08;;;;;;;8.68;6.22;;;;;;;1.53;66.39;95272.00;1534154;91;21191;-49
2022/02/28 02:48:35;;;;;;;9.53;6.53;;;;;;;1.52;66.42;95273.75;1539730;91;21181;-52
2022/02/28 02:51:06;;;;;;;8.05;6.78;;;;;;;1.50;66.57;95272.77;1545718;90;21522;-51
2022/02/28 02:53:33;;;;;;;9.95;6.78;;;;;;;1.56;66.57;95279.41;1551330;90;21154;-50
2022/02/28 02:56:00;;;;;;;8.45;6.58;;;;;;;1.58;66.34;95270.88;1550019;90;21072;-51
2022/02/28 02:58:27;;;;;;;10.55;7.75;;;;;;;1.58;66.24;95273.03;1545501;90;21105;-49
2022/02/28 03:00:54;;;;;;;8.18;6.97;;;;;;;1.65;66.24;95277.13;1523000;92;21184;-49
2022/02/28 03:03:23;;;;;;;7.22;6.40;;;;;;;1.66;66.09;95278.69;1547314;90;21617;-49
2022/02/28 03:05:51;;;;;;;8.70;6.50;;;;;;;1.64;66.15;95279.64;1557294;90;21173;-51
2022/02/28 03:08:18;;;;;;;7.97;7.10;;;;;;;1.66;66.22;95277.92;1511999;92;21108;-50
2022/02/28 03:10:45;;;;;;;7.55;6.72;;;;;;;1.73;66.26;95278.72;1532525;90;21091;-49
2022/02/28 03:13:12;;;;;;;12.40;9.58;;;;;;;1.80;65.90;95280.14;1544923;92;21747;-49
2022/02/28 03:15:39;;;;;;;16.48;12.93;;;;;;;1.85;65.80;95279.22;1540481;91;21041;-50
2022/02/28 03:18:08;;;;;;;11.45;10.35;;;;;;;1.88;65.86;95280.38;1515899;92;21045;-52
2022/02/28 03:20:36;;;;;;;8.23;7.10;;;;;;;1.87;66.10;95285.59;1541346;90;21163;-49
2022/02/28 03:23:04;;;;;;;7.95;7.15;;;;;;;1.87;66.11;95284.25;1526047;92;21033;-50
2022/02/28 03:25:31;;;;;;;9.68;7.40;;;;;;;1.85;66.31;95278.42;1531628;90;21197;-49
2022/02/28 03:27:59;;;;;;;8.90;8.00;;;;;;;1.86;66.42;95282.13;1553202;91;21023;-51
2022/02/28 03:30:27;;;;;;;11.08;7.47;;;;;;;1.85;66.74;95282.49;1528104;91;21051;-57
2022/02/28 03:32:55;;;;;;;7.17;6.53;;;;;;;1.90;66.69;95286.20;1536988;91;21124;-49
2022/02/28 03:35:23;;;;;;;10.53;7.83;;;;;;;1.93;66.62;95286.22;1543056;92;21043;-54
2022/02/28 03:37:50;;;;;;;8.85;7.97;;;;;;;1.91;66.82;95286.39;1553348;90;21975;-51
2022/02/28 03:40:18;;;;;;;10.53;8.40;;;;;;;1.93;67.10;95290.89;1535092;90;21593;-51
2022/02/28 03:42:44;;;;;;;13.83;9.15;;;;;;;1.93;67.01;95282.75;1527866;90;21053;-50
2022/02/28 03:45:12;;;;;;;9.95;8.68;;;;;;;1.91;67.17;95291.81;1546655;90;20989;-51
2022/02/28 03:47:39;;;;;;;9.28;7.75;;;;;;;1.88;67.26;95283.09;1543983;90;21097;-50
2022/02/28 03:50:11;;;;;;;10.48;7.65;;;;;;;1.84;67.27;95282.30;1535951;92;23241;-51
2022/02/28 03:52:37;;;;;;;8.53;7.72;;;;;;;1.75;67.60;95280.51;1522801;92;21103;-50
2022/02/28 03:55:24;;;;;;;9.90;8.20;;;;;;;1.70;67.45;95283.55;1520741;92;21020;-52
2022/02/28 03:57:51;;;;;;;12.00;8.30;;;;;;;1.67;68.03;95282.95;1523142;91;21112;-54
2022/02/28 04:00:18;;;;;;;11.20;8.28;;;;;;;1.76;67.80;95288.84;1536768;92;21073;-50
2022/02/28 04:02:44;;;;;;;8.58;7.78;;;;;;;1.76;67.82;95290.96;1547810;91;21152;-51
2022/02/28 04:05:12;;;;;;;11.88;8.73;;;;;;;1.77;68.08;95292.52;1536895;92;21054;-51
2022/02/28 04:07:40;;;;;;;11.22;8.68;;;;;;;1.81;67.85;95296.61;1534241;92;21049;-50
2022/02/28 04:10:08;;;;;;;11.45;8.83;;;;;;;1.76;67.92;95289.60;1531457;90;21135;-53
2022/02/28 04:12:38;;;;;;;11.25;8.80;;;;;;;1.81;67.99;95296.61;1551589;90;21096;-50
2022/02/28 04:15:07;;;;;;;9.75;8.25;;;;;;;1.87;68.01;95293.73;1546501;91;21164;-49
2022/02/28 04:17:34;;;;;;;19.77;11.50;;;;;;;1.95;67.81;95294.00;1521679;92;21076;-49
2022/02/28 04:20:19;;;;;;;13.45;9.48;;;;;;;1.97;67.75;95299.23;1546831;90;21040;-51
2022/02/28 04:22:46;;;;;;;9.90;8.53;;;;;;;1.88;67.43;95302.08;1532577;90;21125;-49
2022/02/28 04:25:12;;;;;;;7.60;6.92;;;;;;;1.80;67.62;95299.13;1533312;91;21077;-51
2022/02/28 04:27:41;;;;;;;7.00;6.40;;;;;;;1.72;67.52;95304.28;1537045;90;21033;-50
2022/02/28 04:30:11;;;;;;;7.17;6.58;;;;;;;1.69;67.25;95304.28;1528139;91;21100;-51
2022/02/28 04:32:39;;;;;;;8.63;7.72;;;;;;;1.65;67.27;95304.25;1542021;90;21113;-51
2022/02/28 04:35:08;;;;;;;7.28;6.65;;;;;;;1.62;67.23;95306.36;1552784;90;21143;-52
2022/02/28 04:37:37;;;;;;;8.30;6.75;;;;;;;1.57;67.24;95310.79;1550906;90;21092;-51
2022/02/28 04:40:07;;;;;;;7.62;6.90;;;;;;;1.51;67.12;95314.22;1518070;92;21173;-50
2022/02/28 04:42:35;;;;;;;7.30;6.60;;;;;;;1.40;67.12;95319.55;1534402;92;21097;-50
2022/02/28 04:45:05;;;;;;;8.80;7.70;;;;;;;1.38;67.26;95319.16;1556128;91;21066;-50
2022/02/28 04:47:32;;;;;;;8.48;7.22;;;;;;;1.38;67.14;95321.08;1554133;90;21124;-49
2022/02/28 04:50:17;;;;;;;11.45;8.75;;;;;;;1.39;67.19;95328.84;1526883;90;21205;-50
2022/02/28 04:52:45;;;;;;;12.23;9.28;;;;;;;1.38;66.71;95331.35;1537505;90;22383;-51
2022/02/28 04:55:13;;;;;;;14.73;11.28;;;;;;;1.35;66.35;95330.72;1550527;91;21060;-51
2022/02/28 04:57:44;;;;;;;12.70;10.23;;;;;;;1.29;66.22;95334.94;1547609;90;21569;-52
2022/02/28 05:00:13;;;;;;;13.88;10.98;;;;;;;1.31;65.82;95331.27;1554066;90;21567;-50
2022/02/28 05:02:40;;;;;;;9.53;8.60;;;;;;;1.31;65.20;95339.99;1567671;89;21115;-51
2022/02/28 05:05:19;;;;;;;13.03;9.43;;;;;;;1.29;64.66;95345.77;1553741;90;22416;-51
2022/02/28 05:07:46;;;;;;;12.78;9.83;;;;;;;1.23;64.29;95347.27;1549594;90;21110;-51
2022/02/28 05:10:13;;;;;;;12.10;10.90;;;;;;;1.20;64.35;95342.61;1530996;92;21065;-51
2022/02/28 05:12:40;;;;;;;12.73;11.25;;;;;;;1.21;64.29;95346.88;1539064;92;21049;-54
2022/02/28 05:15:09;;;;;;;12.63;10.00;;;;;;;1.23;64.48;95354.05;1550693;89;21140;-54
2022/02/28 05:17:37;;;;;;;14.60;9.68;;;;;;;1.29;64.33;95354.50;1537712;90;21129;-56
2022/02/28 05:20:06;;;;;;;13.43;10.80;;;;;;;1.31;64.13;95354.90;1533274;91;21537;-55
2022/02/28 05:22:34;;;;;;;15.28;10.48;;;;;;;1.30;64.03;95357.41;1531531;92;21509;-55
2022/02/28 05:25:06;;;;;;;10.00;8.85;;;;;;;1.26;63.97;95357.92;1525439;91;21180;-58
2022/02/28 05:27:39;;;;;;;10.80;8.78;;;;;;;1.19;63.94;95359.23;1536203;91;21101;-49
2022/02/28 05:30:07;;;;;;;13.20;9.48;;;;;;;1.09;64.07;95362.59;1512557;93;21168;-52
2022/02/28 05:32:34;;;;;;;11.03;9.38;;;;;;;1.03;64.52;95364.88;1567071;89;21540;-51
2022/02/28 05:35:17;;;;;;;14.68;10.50;;;;;;;1.08;64.88;95372.67;1541273;91;21045;-52
2022/02/28 05:37:54;;;;;;;14.43;9.60;;;;;;;1.16;65.06;95368.10;1552096;90;21147;-50
2022/02/28 05:40:22;;;;;;;13.40;9.65;;;;;;;1.25;65.07;95379.41;1548424;90;21136;-55
2022/02/28 05:42:49;;;;;;;13.55;10.10;;;;;;;1.28;65.17;95371.31;1540351;90;21185;-52
2022/02/28 05:45:16;;;;;;;20.92;12.13;;;;;;;1.30;65.12;95376.38;1531294;90;21090;-55
2022/02/28 05:47:44;;;;;;;22.45;14.35;;;;;;;1.32;65.37;95377.55;1546342;90;21058;-52
2022/02/28 05:50:13;;;;;;;26.62;14.83;;;;;;;1.39;65.33;95372.77;1525999;91;21141;-53
2022/02/28 05:52:39;;;;;;;37.05;17.80;;;;;;;1.46;65.46;95376.89;1536666;90;21113;-55
2022/02/28 05:55:08;;;;;;;21.40;14.75;;;;;;;1.55;65.45;95380.09;1547232;90;21580;-52
2022/02/28 05:57:38;;;;;;;18.67;11.73;;;;;;;1.61;65.25;95379.38;1544539;90;21533;-53
2022/02/28 06:00:08;;;;;;;13.60;10.95;;;;;;;1.70;65.32;95379.81;1531332;90;21290;-52
2022/02/28 06:02:38;;;;;;;14.40;11.73;;;;;;;1.85;65.01;95384.20;1544859;90;21041;-54
2022/02/28 06:05:06;;;;;;;15.05;10.60;;;;;;;1.95;64.63;95386.23;1543290;92;21115;-56
2022/02/28 06:07:33;;;;;;;21.00;11.95;;;;;;;2.01;64.21;95390.14;1538511;91;21176;-52
2022/02/28 06:10:00;;;;;;;14.60;10.95;;;;;;;2.03;63.90;95398.69;1541361;90;20993;-53
2022/02/28 06:12:27;;;;;;;13.32;10.85;;;;;;;2.05;63.80;95397.73;1543960;90;21046;-51
2022/02/28 06:14:54;;;;;;;13.10;10.55;;;;;;;2.04;63.78;95395.61;1534724;90;21104;-52
2022/02/28 06:17:22;;;;;;;16.10;11.22;;;;;;;2.08;63.79;95403.75;1535012;90;21040;-55
2022/02/28 06:19:50;;;;;;;11.60;9.03;;;;;;;2.14;63.75;95401.67;1553747;90;21240;-56
2022/02/28 06:22:18;;;;;;;13.25;9.55;;;;;;;2.18;63.28;95402.47;1553618;90;21160;-53
2022/02/28 06:24:47;;;;;;;13.93;9.00;;;;;;;2.25;62.92;95402.53;1542105;91;21798;-54
2022/02/28 06:27:14;;;;;;;19.02;11.03;;;;;;;2.28;62.54;95408.55;1520733;91;21679;-55
2022/02/28 06:29:40;;;;;;;12.07;9.10;;;;;;;2.37;62.08;95406.87;1540434;92;21113;-55
2022/02/28 06:32:08;;;;;;;15.25;10.60;;;;;;;2.40;61.72;95409.61;1557904;88;21118;-57
2022/02/28 06:34:36;;;;;;;12.58;9.50;;;;;;;2.48;61.60;95414.52;1528689;91;21106;-57
2022/02/28 06:37:03;;;;;;;13.53;12.05;;;;;;;2.54;61.16;95410.27;1509897;92;21435;-54
2022/02/28 06:39:30;;;;;;;10.20;9.00;;;;;;;2.59;60.92;95412.62;1523514;92;21058;-55
2022/02/28 06:41:57;;;;;;;8.93;8.05;;;;;;;2.55;60.29;95419.41;1549579;90;21286;-53
2022/02/28 06:44:23;;;;;;;9.43;8.23;;;;;;;2.56;59.72;95416.09;1532211;90;21880;-55
2022/02/28 06:46:52;;;;;;;11.63;8.10;;;;;;;2.59;59.60;95424.84;1553205;90;21229;-52
2022/02/28 06:49:19;;;;;;;13.48;9.48;;;;;;;2.57;59.79;95424.44;1519789;92;21172;-52
2022/02/28 06:51:48;;;;;;;13.68;10.03;;;;;;;2.52;59.64;95431.00;1534963;90;21590;-54
2022/02/28 06:54:16;;;;;;;10.75;8.50;;;;;;;2.54;60.06;95432.75;1532106;91;21172;-52
2022/02/28 06:56:43;;;;;;;10.45;8.28;;;;;;;2.56;59.93;95426.95;1540407;90;21183;-53
2022/02/28 06:59:10;;;;;;;13.88;8.70;;;;;;;2.56;59.50;95435.11;1544058;90;21148;-55
2022/02/28 07:01:38;;;;;;;14.15;9.98;;;;;;;2.55;59.29;95428.12;1537945;91;21210;-58
2022/02/28 07:04:07;;;;;;;17.98;11.68;;;;;;;2.63;59.50;95430.50;1531638;90;21052;-56
2022/02/28 07:06:35;;;;;;;14.58;10.75;;;;;;;2.80;59.47;95438.53;1560119;90;21122;-56
2022/02/28 07:09:02;;;;;;;15.45;10.28;;;;;;;3.01;58.86;95425.83;1522874;92;21895;-55
2022/02/28 07:11:33;;;;;;;18.35;10.80;;;;;;;3.20;58.13;95430.18;1547964;90;21056;-57
2022/02/28 07:14:01;;;;;;;11.28;8.73;;;;;;;3.42;57.69;95433.92;1506900;92;21029;-57
2022/02/28 07:16:30;;;;;;;9.75;7.47;;;;;;;3.60;57.17;95431.45;1542057;90;21239;-58
2022/02/28 07:19:02;;;;;;;10.75;7.22;;;;;;;3.73;56.37;95431.26;1550167;90;21654;-58
2022/02/28 07:21:34;;;;;;;13.48;8.43;;;;;;;3.79;56.04;95435.75;1565935;88;21072;-56
2022/02/28 07:24:24;;;;;;;;;;;;;;;;;;;;;
2022/02/28 07:26:47;;;;;;;7.53;6.72;;;;;;;3.76;54.94;95444.12;1541007;91;21196;-62
2022/02/28 07:29:16;;;;;;;12.68;9.10;;;;;;;3.65;55.14;95440.59;1532895;92;21123;-62
2022/02/28 07:31:43;;;;;;;8.75;7.20;;;;;;;3.65;55.64;95444.67;1534719;91;20988;-58
2022/02/28 07:34:10;;;;;;;7.55;5.85;;;;;;;3.71;55.33;95451.28;1544273;90;21208;-62
2022/02/28 07:36:37;;;;;;;10.03;7.10;;;;;;;3.66;55.01;95444.86;1565647;88;21085;-59
2022/02/28 07:39:06;;;;;;;11.90;8.45;;;;;;;3.57;55.46;95439.03;1537198;90;21063;-57
2022/02/28 07:41:33;;;;;;;9.85;7.80;;;;;;;3.46;56.40;95444.81;1543765;90;21085;-59
2022/02/28 07:44:00;;;;;;;14.13;9.20;;;;;;;3.20;57.37;95458.73;1528707;92;21234;-61
2022/02/28 07:46:26;;;;;;;16.45;12.55;;;;;;;3.04;58.49;95455.55;1532584;91;21663;-64
2022/02/28 07:48:54;;;;;;;12.82;10.13;;;;;;;2.96;59.56;95448.50;1537621;90;21071;-60
2022/02/28 07:51:23;;;;;;;13.62;9.60;;;;;;;2.88;60.78;95449.64;1523864;91;21195;-58
2022/02/28 07:53:52;;;;;;;21.27;14.00;;;;;;;2.80;61.67;95457.55;1533834;90;21104;-55
2022/02/28 07:56:33;;;;;;;;;;;;;;;;;;;;;
2022/02/28 07:58:58;;;;;;;14.93;9.23;;;;;;;2.65;62.61;95452.63;1542561;91;21122;-58
2022/02/28 08:01:28;;;;;;;12.18;9.43;;;;;;;2.65;61.82;95457.29;1532027;91;21153;-60
2022/02/28 08:04:05;;;;;;;12.15;9.25;;;;;;;2.73;61.97;95464.31;1523955;91;21084;-57
2022/02/28 08:06:33;;;;;;;12.23;9.35;;;;;;;2.80;61.27;95458.91;1543082;91;21047;-60
2022/02/28 08:09:00;;;;;;;14.90;10.82;;;;;;;2.82;61.12;95468.23;1548207;91;21079;-60
2022/02/28 08:11:27;;;;;;;12.65;10.05;;;;;;;2.81;60.58;95476.20;1532732;90;21354;-55
2022/02/28 08:13:56;;;;;;;16.85;10.40;;;;;;;2.94;60.72;95470.64;1537776;90;21162;-61
2022/02/28 08:16:23;;;;;;;15.75;10.10;;;;;;;3.08;59.91;95474.00;1537775;91;21231;-61
2022/02/28 08:18:50;;;;;;;18.73;10.63;;;;;;;3.19;59.67;95478.89;1530579;90;21483;-55
2022/02/28 08:21:16;;;;;;;16.17;10.45;;;;;;;3.33;59.57;95481.67;1514009;92;21137;-61
2022/02/28 08:23:47;;;;;;;10.08;8.83;;;;;;;3.51;59.63;95485.42;1534800;91;21123;-60
2022/02/28 08:26:14;;;;;;;10.32;8.68;;;;;;;3.66;59.23;95482.95;1548981;91;21127;-57
2022/02/28 08:28:41;;;;;;;15.55;9.93;;;;;;;3.72;58.56;95484.72;1562368;88;21088;-58
2022/02/28 08:31:08;;;;;;;22.35;13.32;;;;;;;3.72;58.14;95488.20;1541025;91;21190;-56
2022/02/28 08:33:40;;;;;;;12.85;10.35;;;;;;;3.72;58.42;95493.65;1550501;89;21165;-59
2022/02/28 08:36:07;;;;;;;12.47;10.60;;;;;;;3.72;58.37;95492.28;1527098;91;21168;-65
2022/02/28 08:38:37;;;;;;;14.18;10.32;;;;;;;3.63;58.51;95494.61;1532301;90;21071;-60
2022/02/28 08:41:05;;;;;;;17.23;12.07;;;;;;;3.52;59.07;95499.22;1530572;90;21158;-63
2022/02/28 08:43:32;;;;;;;12.45;10.20;;;;;;;3.34;59.55;95504.98;1534341;89;21054;-60
2022/02/28 08:46:01;;;;;;;11.78;9.70;;;;;;;3.04;60.45;95507.19;1529726;91;21055;-58
2022/02/28 08:48:28;;;;;;;12.90;10.95;;;;;;;2.82;61.46;95504.13;1538511;91;21937;-61
2022/02/28 08:50:56;;;;;;;18.20;14.35;;;;;;;2.71;62.36;95508.14;1542513;90;21183;-59
2022/02/28 08:53:23;;;;;;;19.00;12.70;;;;;;;2.77;63.02;95509.92;1543769;90;21079;-60
2022/02/28 08:55:50;;;;;;;18.32;12.13;;;;;;;2.88;62.15;95503.98;1534960;91;21169;-59
2022/02/28 08:58:17;;;;;;;15.15;10.72;;;;;;;2.93;61.39;95503.63;1507870;91;21562;-57
2022/02/28 09:00:44;;;;;;;10.98;8.10;;;;;;;2.97;61.15;95505.77;1526190;92;21177;-62
2022/02/28 09:03:12;;;;;;;9.60;8.25;;;;;;;2.97;59.19;95504.41;1535199;90;21619;-59
2022/02/28 09:05:39;;;;;;;9.80;8.40;;;;;;;2.93;59.14;95507.70;1534313;90;21138;-57
2022/02/28 09:08:06;;;;;;;7.80;6.97;;;;;;;2.98;58.54;95508.12;1553633;88;21116;-62
2022/02/28 09:10:34;;;;;;;8.90;7.87;;;;;;;2.99;57.66;95510.25;1520575;92;21045;-59
2022/02/28 09:13:02;;;;;;;7.83;7.03;;;;;;;3.02;57.32;95517.66;1542813;90;21330;-60
2022/02/28 09:15:30;;;;;;;9.33;7.03;;;;;;;3.05;56.73;95518.26;1542082;90;21043;-59
2022/02/28 09:17:56;;;;;;;9.73;7.65;;;;;;;3.01;56.89;95520.16;1507048;92;21104;-60
2022/02/28 09:20:24;;;;;;;13.03;8.43;;;;;;;3.02;56.72;95519.78;1531525;90;21233;-59
2022/02/28 09:22:51;;;;;;;11.70;8.60;;;;;;;3.14;56.43;95529.55;1536746;91;21060;-58
2022/02/28 09:25:20;;;;;;;12.95;9.30;;;;;;;3.30;55.20;95527.31;1534395;90;21928;-59
2022/02/28 09:27:51;;;;;;;;;;;;;;;3.42;55.16;95532.42;1537418;90;21176;-59
2022/02/28 09:30:19;;;;;;;11.10;9.08;;;;;;;3.64;54.47;95539.69;1546720;90;20208;-59
2022/02/28 09:32:48;;;;;;;9.53;7.35;;;;;;;3.92;53.98;95538.43;1558966;90;21061;-58
2022/02/28 09:35:18;;;;;;;8.40;7.37;;;;;;;4.14;52.74;95537.30;1527551;90;21213;-61
2022/02/28 09:37:45;;;;;;;7.40;6.62;;;;;;;4.12;52.83;95534.19;1542411;90;21168;-59
2022/02/28 09:40:13;;;;;;;8.55;7.55;;;;;;;4.03;52.91;95535.13;1538872;90;21303;-60
2022/02/28 09:42:41;;;;;;;9.18;7.22;;;;;;;4.14;52.85;95531.86;1543778;90;21125;-59
2022/02/28 09:45:27;;;;;;;8.68;7.30;;;;;;;4.20;52.15;95531.66;1547422;90;21081;-60
2022/02/28 09:48:15;;;;;;;9.45;6.72;;;;;;;4.06;51.73;95531.63;1545138;92;21566;-61
2022/02/28 09:50:51;;;;;;;11.57;8.33;;;;;;;3.79;52.21;95544.02;1542372;90;21064;-60
2022/02/28 09:53:21;;;;;;;9.15;7.87;;;;;;;3.53;53.45;95538.86;1535864;91;21022;-57
2022/02/28 09:55:50;;;;;;;10.43;8.93;;;;;;;3.41;54.21;95541.74;1558903;90;21146;-58
2022/02/28 09:58:32;;;;;;;12.53;6.97;;;;;;;3.31;54.62;95552.77;1524727;90;21188;-57
2022/02/28 10:01:00;;;;;;;8.75;7.83;;;;;;;3.27;54.77;95539.71;1527564;91;21689;-57
2022/02/28 10:03:28;;;;;;;9.08;6.75;;;;;;;3.18;55.05;95537.14;1539098;91;21212;-62
2022/02/28 10:06:01;;;;;;;14.85;10.95;;;;;;;3.12;55.28;95544.11;1523533;92;21111;-59
2022/02/28 10:08:47;;;;;;;12.20;7.75;;;;;;;3.06;55.36;95536.13;1514436;92;28343;-60
2022/02/28 10:11:32;;;;;;;10.82;8.15;;;;;;;3.05;55.42;95535.92;1534510;91;21098;-59
2022/02/28 10:14:04;;;;;;;13.95;9.30;;;;;;;3.09;55.51;95529.92;1519742;91;21098;-60
2022/02/28 10:16:46;;;;;;;17.87;12.43;;;;;;;3.23;55.28;95531.36;1566916;88;21243;-57
2022/02/28 10:19:24;;;;;;;14.70;11.48;;;;;;;3.35;54.92;95540.53;1539330;90;21291;-62
2022/02/28 10:21:54;;;;;;;15.32;9.85;;;;;;;3.50;54.32;95528.75;1537909;90;21094;-60
2022/02/28 10:24:29;;;;;;;10.08;7.78;;;;;;;3.64;54.12;95533.46;1561187;89;21050;-57
2022/02/28 10:27:04;;;;;;;10.78;8.20;;;;;;;3.74;54.08;95536.24;1514081;92;21107;-60
2022/02/28 10:29:50;;;;;;;9.70;6.95;;;;;;;3.72;52.62;95531.73;1478500;95;21202;-60
2022/02/28 10:32:25;;;;;;;13.37;9.70;;;;;;;3.59;52.33;95540.07;1448328;95;21278;-60
2022/02/28 10:38:05;;;;;;;11.95;7.42;;;;;;;3.39;52.86;95548.14;1529104;90;21127;-60
2022/02/28 10:40:32;;;;;;;12.30;9.30;;;;;;;3.39;53.33;95540.75;1521038;90;21077;-61
2022/02/28 10:43:00;;;;;;;9.20;7.58;;;;;;;3.43;52.66;95540.78;1541847;90;21899;-59
2022/02/28 10:45:27;;;;;;;18.35;11.88;;;;;;;3.41;52.64;95543.10;1534067;91;21079;-58
2022/02/28 10:47:55;;;;;;;24.95;15.78;;;;;;;3.40;52.71;95540.19;1535015;90;21214;-56
2022/02/28 10:50:39;;;;;;;25.37;15.83;;;;;;;3.44;52.99;95539.02;1523568;91;21111;-60
2022/02/28 10:53:20;;;;;;;11.90;9.10;;;;;;;3.49;52.31;95544.88;1540979;90;21612;-61
2022/02/28 10:55:50;;;;;;;14.65;8.85;;;;;;;3.53;52.62;95553.83;1532872;90;21176;-59
2022/02/28 10:58:26;;;;;;;7.53;6.85;;;;;;;3.56;52.84;95554.45;1529627;90;21495;-58
2022/02/28 11:01:00;;;;;;;11.15;8.13;;;;;;;3.51;52.95;95556.15;1538981;90;21216;-59
2022/02/28 11:03:32;;;;;;;9.85;8.68;;;;;;;3.45;53.15;95558.25;1528103;92;21519;-59
2022/02/28 11:05:59;;;;;;;9.05;7.83;;;;;;;3.38;53.59;95566.39;1528480;91;21149;-58
2022/02/28 11:08:27;;;;;;;12.03;8.50;;;;;;;3.23;53.39;95557.19;1521605;90;21185;-58
2022/02/28 11:10:56;;;;;;;8.55;7.15;;;;;;;3.14;53.63;95579.27;1531638;92;21088;-60
2022/02/28 11:13:27;;;;;;;7.72;7.03;;;;;;;3.05;53.81;95566.58;1535596;91;22335;-60
2022/02/28 11:15:55;;;;;;;8.80;7.50;;;;;;;2.98;53.79;95567.11;1542286;90;21229;-63
2022/02/28 11:18:23;;;;;;;7.65;6.75;;;;;;;2.85;53.76;95564.53;1528526;90;21059;-58
2022/02/28 11:20:55;;;;;;;9.53;8.43;;;;;;;2.74;54.39;95560.94;1529371;90;21126;-58
2022/02/28 11:23:19;;;;;;;10.20;7.50;;;;;;;2.59;54.69;95561.42;1545090;90;21179;-60
2022/02/28 11:25:50;;;;;;;15.80;9.70;;;;;;;2.48;54.79;95565.21;1526921;91;21115;-58
2022/02/28 11:28:17;;;;;;;15.30;9.33;;;;;;;2.43;55.49;95564.17;1528044;91;21166;-60
2022/02/28 11:30:48;;;;;;;8.70;6.75;;;;;;;2.47;55.09;95561.70;1536551;90;21112;-60
2022/02/28 11:33:16;;;;;;;12.53;7.45;;;;;;;2.57;54.54;95549.36;1518655;92;21272;-57
2022/02/28 11:35:54;;;;;;;7.28;6.55;;;;;;;2.70;54.44;95549.27;1533920;92;21481;-57
2022/02/28 11:38:30;;;;;;;8.73;7.33;;;;;;;2.85;54.42;95542.79;1536060;90;21155;-59
2022/02/28 11:41:04;;;;;;;12.75;8.10;;;;;;;2.89;53.64;95542.98;1519677;92;21102;-57
2022/02/28 11:43:35;;;;;;;12.23;8.73;;;;;;;2.88;53.62;95544.74;1528004;92;21555;-59
2022/02/28 11:46:11;;;;;;;17.32;13.10;;;;;;;2.82;53.56;95538.88;1520315;92;21147;-58
2022/02/28 11:48:54;;;;;;;15.08;10.53;;;;;;;2.73;54.00;95542.48;1536624;91;21037;-61